• Join FlightAware (Why Join?)
  • Login
  • US Flag 
04:18AM EDT


 

Airport Tracker/Info


-or-


 

Live Flight TrackerFlight Track Log ✈ DAL454 ✈ 20-Mar-2014 ✈ KJFK - TIST / STT

Flight Track Log - Related Links

Times and Time Zones

All times are in EDT time to prevent confusion due to time zone crossing. See the DAL454 flight status page for this flight to view local times or setup timezone preferences in your user account.

Time Position Orientation Groundspeed Altitude Reporting Facility
EDT Latitude Longitude Course Direction KTS MPH feet Rate Location/Type
09:03AM 40.5833 -73.8000 128° Southeast 193 222 1,800  Level New York TRACON
09:05AM 40.4886 -73.6664 133° Southeast 262 302 8,000 2,700 Climbing New York Center
09:06AM 40.3502 -73.2836 131° Southeast  Level FlightAware Approximate
09:06AM 40.4514 -73.5747 118° Southeast 302 348 10,600  Level New York Center
09:07AM 40.2694 -73.1541 128° Southeast  Level FlightAware Approximate
09:07AM 40.4042 -73.4475 116° Southeast 338 389 12,100  Level New York Center
09:08AM 40.1906 -73.0225 128° Southeast  Level FlightAware Approximate
09:08AM 40.3589 -73.3286 117° Southeast 382 440 14,300  Level New York Center
09:09AM 40.2953 -73.1903 121° Southeast 406 467 16,400 2,100 Climbing New York Center
09:10AM 40.2186 -73.0678 129° Southeast 425 489 18,500 1,560 Climbing New York Center
09:11AM 40.1372 -72.9567 134° Southeast 425 489 19,600 1,500 Climbing New York Center
09:12AM 40.0475 -72.8561 139° Southeast 426 490 21,500 1,800 Climbing New York Center
09:13AM 39.9578 -72.7506 138° Southeast 432 497 23,200 1,440 Climbing New York Center
09:14AM 39.8636 -72.6450 139° Southeast 437 503 24,400 1,560 Climbing New York Center
09:15AM 39.7694 -72.5344 138° Southeast 448 516 26,400 1,800 Climbing New York Center
09:16AM 39.6731 -72.4269 139° Southeast 454 522 28,000 1,440 Climbing New York Center
09:17AM 39.5764 -72.3222 140° Southeast 454 522 29,300 1,500 Climbing New York Center
09:18AM 39.4819 -72.2097 137° Southeast 454 522 31,000 1,560 Climbing New York Center
09:19AM 39.3875 -72.1058 140° Southeast 454 522 32,500 1,020 Climbing New York Center
09:20AM 39.2928 -72.0019 140° Southeast 454 522 33,100 1,080 Climbing New York Center
09:21AM 39.1939 -71.8903 139° Southeast 454 522 34,700 1,440 Climbing New York Center
09:22AM 39.0989 -71.7817 138° Southeast 459 528 36,000 900 Climbing New York Center
09:23AM 39.0017 -71.6789 141° Southeast 453 521 36,600 480 Climbing New York Center
09:24AM 38.9047 -71.5683 138° Southeast 453 521 37,000 420 Climbing New York Center
09:25AM 38.8053 -71.4550 138° Southeast 464 534 37,500 480 Climbing New York Center
09:26AM 38.7058 -71.3425 139° Southeast 475 547 38,000 240 Climbing New York Center
09:27AM 38.6042 -71.2325 140° Southeast 480 552 38,000  Level New York Center
09:28AM 38.5025 -71.1231 140° Southeast 480 552 38,000  Level New York Center
09:29AM 38.3964 -71.0139 141° Southeast 480 552 38,000  Level New York Center
09:30AM 38.2944 -70.8969 138° Southeast 480 552 38,000  Level New York Center
09:31AM 38.1944 -70.7831 138° Southeast 480 552 38,000  Level New York Center
09:32AM 38.0881 -70.6775 142° Southeast 480 552 38,000  Level New York Center
09:33AM 37.9836 -70.5669 140° Southeast 485 558 38,000  Level New York Center
09:34AM 37.8731 -70.4856 150° Southeast 480 552 38,000  Level New York Center
09:35AM 38.0000 -70.5833 153° Southeast 460 529 38,000  Level New York Oceanic (ODAPS)
09:51AM 36.1667 -69.4500 143° Southeast 507 583 38,000  Level New York Oceanic (ODAPS)
10:01AM 34.7961 -68.1864 144° Southeast 481 554 38,000  Level New York Center
10:02AM 34.7010 -68.0926 143° Southeast 507 583 38,000  Level FlightAware Transoceanic
10:02AM 34.6978 -68.0733 137° Southeast 481 554 38,000  Level New York Center
10:03AM 34.5876 -67.9902 143° Southeast 507 583 38,000  Level FlightAware Transoceanic
10:03AM 34.5997 -67.9856 144° Southeast 488 562 38,000  Level New York Center
10:04AM 34.4742 -67.8880 143° Southeast 507 583 38,000  Level FlightAware Transoceanic
10:04AM 34.4822 -67.8739 142° Southeast 488 562 38,000  Level New York Center
10:05AM 34.3606 -67.7862 144° Southeast 507 583 38,000  Level FlightAware Transoceanic
10:05AM 34.3675 -67.7797 146° Southeast 501 577 38,000  Level New York Center
10:06AM 34.2631 -67.6956 146° Southeast 508 585 38,000  Level New York Center
10:07AM 34.1436 -67.5922 144° Southeast 485 558 38,000  Level New York Center
10:08AM 34.0319 -67.5539 164° South 489 563 38,000  Level New York Center
10:09AM 33.8958 -67.5267 171° South 456 525 38,000  Level New York Center
10:10AM 33.7739 -67.4964 168° South 447 514 38,000  Level New York Center
10:11AM 33.6506 -67.4789 173° South 475 547 38,000  Level New York Center
10:12AM 33.5244 -67.4439 167° South 463 533 38,000 60 Level New York Center
10:13AM 33.4028 -67.4214 171° South 469 540 38,200 300 Climbing New York Center
10:14AM 33.2706 -67.3894 169° South 455 524 38,700 360 Climbing New York Center
10:15AM 33.1344 -67.3675 172° South 472 543 39,000 120 Climbing New York Center
10:16AM 33.0253 -67.3422 169° South 470 541 39,000  Level New York Center
10:17AM 32.8786 -67.3111 170° South 480 552 39,000  Level New York Center
10:18AM 32.7422 -67.2822 170° South 483 556 39,000  Level New York Center
10:19AM 32.6164 -67.2578 171° South 502 578 39,000  Level New York Center
10:20AM 32.4675 -67.2294 171° South 491 565 39,000  Level New York Center
10:21AM 32.3544 -67.2044 169° South 485 558 39,000  Level New York Center
10:22AM 32.2033 -67.1717 170° South 500 575 39,000  Level New York Center
10:23AM 32.0692 -67.1428 170° South 494 568 39,000  Level New York Center
10:24AM 31.9475 -67.1211 171° South 494 568 39,000  Level New York Center
10:25AM 31.8008 -67.0906 170° South 488 562 39,000  Level New York Center
10:26AM 31.6772 -67.0642 170° South 493 567 39,000  Level New York Center
10:27AM 31.5283 -67.0339 170° South 500 575 39,000  Level New York Center
10:28AM 31.3964 -67.0081 171° South 494 568 39,000  Level New York Center
10:29AM 31.2769 -66.9842 170° South 489 563 39,000  Level New York Center
10:30AM 31.1325 -66.9564 171° South 485 558 39,000  Level New York Center
10:31AM 30.9961 -66.9283 170° South 500 575 39,000  Level New York Center
10:32AM 30.8703 -66.9000 169° South 505 581 39,000  Level New York Center
10:33AM 30.7244 -66.8894 176° South 493 567 39,000  Level New York Center
10:34AM 30.5947 -66.8711 173° South 505 581 39,000  Level New York Center
10:35AM 30.4489 -66.8631 177° South 489 563 39,000  Level New York Center
10:36AM 30.3131 -66.8497 175° South 487 560 39,000  Level New York Center
10:37AM 30.1858 -66.8361 175° South 492 566 39,000  Level New York Center
10:38AM 30.0378 -66.8281 177° South 497 572 39,000  Level New York Center
11:29AM 23.5000 -65.5333 165° South 520 598 39,000  Level New York Oceanic (ODAPS)
11:34AM 22.4500 -65.2333 166° South 470 541 39,000  Level San Juan Center
11:35AM 22.2386 -65.1776 166° South 520 598 39,000  Level FlightAware Transoceanic
11:35AM 22.3333 -65.2167 172° South 460 529 39,000  Level San Juan Center
11:36AM 22.0984 -65.1384 166° South 520 598 39,000  Level FlightAware Transoceanic
11:36AM 22.1500 -65.1500 161° South 490 564 39,000  Level San Juan Center
11:37AM 21.9582 -65.0994 166° South 520 598 39,000  Level FlightAware Transoceanic
11:37AM 22.0167 -65.1000 161° South 490 564 39,000  Level San Juan Center
11:38AM 21.8179 -65.0604 166° South 520 598 39,000  Level FlightAware Transoceanic
11:38AM 21.8833 -65.0667 167° South 500 575 39,000  Level San Juan Center
11:39AM 21.6777 -65.0215 166° South 520 598 39,000  Level FlightAware Transoceanic
11:39AM 21.7500 -65.0667 180° South 500 575 39,000  Level San Juan Center
11:40AM 21.6167 -65.1000 193° South 490 564 39,000  Level San Juan Center
11:41AM 21.4833 -65.1000 180° South 480 552 39,000  Level San Juan Center
11:42AM 21.3500 -65.1333 193° South 500 575 39,000  Level San Juan Center
11:43AM 21.2167 -65.1333 180° South 480 552 39,000  Level San Juan Center
11:44AM 21.0833 -65.1333 180° South 520 598 39,000  Level San Juan Center
11:45AM 20.9333 -65.1500 186° South 470 541 39,000  Level San Juan Center
11:46AM 20.8167 -65.1667 188° South 480 552 39,000  Level San Juan Center
11:47AM 20.6833 -65.1833 187° South 480 552 39,000 -300 Level San Juan Center
11:48AM 20.5500 -65.1833 180° South 480 552 38,400 -900 Descending San Juan Center
11:49AM 20.4167 -65.2000 187° South 490 564 37,200 -1,200 Descending San Juan Center
11:50AM 20.2833 -65.2167 187° South 490 564 36,100 -1,200 Descending San Juan Center
11:51AM 20.1333 -65.2333 186° South 500 575 34,900 -1,200 Descending San Juan Center
11:52AM 20.0000 -65.2333 180° South 490 564 33,800 -1,200 Descending San Juan Center
11:53AM 19.8667 -65.2500 187° South 510 587 32,500 -1,980 Descending San Juan Center
11:54AM 19.7167 -65.2667 186° South 520 598 29,900 -2,940 Descending San Juan Center
11:55AM 19.5667 -65.2833 186° South 520 598 26,600 -3,180 Descending San Juan Center
11:56AM 19.4000 -65.2833 180° South 490 564 23,600 -2,820 Descending San Juan Center
11:57AM 19.2667 -65.3000 187° South 470 541 21,000 -2,580 Descending San Juan Center
11:58AM 19.1500 -65.3167 188° South 450 518 18,400 -2,520 Descending San Juan Center
11:59AM 19.0333 -65.3333 188° South 430 495 16,000 -2,520 Descending San Juan Center
12:00PM 18.9167 -65.3333 180° South 410 472 13,400 -2,880 Descending San Juan Center
12:01PM 18.8000 -65.3500 188° South 380 437 10,300 -1,860 Descending San Juan Center
12:02PM 18.7167 -65.3167 159° South 320 368 9,700 -1,140 Descending San Juan Center
12:03PM 18.6500 -65.3000 167° South 290 334 8,100 -1,740 Descending San Juan Center
12:04PM 18.5667 -65.2667 159° South 280 322 6,300 -1,740 Descending San Juan Center
12:05PM 18.5000 -65.2333 155° Southeast 260 299 4,600 -1,680 Descending San Juan Center
12:06PM 18.4333 -65.2167 167° South 260 299 3,000 -840 Descending San Juan Center
12:07PM 18.3667 -65.1833 155° Southeast 250 288 3,000 -120 Level San Juan Center
12:08PM 18.3333 -65.1333 125° Southeast 230 265 2,800 -600 Descending San Juan Center
12:09PM 18.3167 -65.0667 105° East 200 230 1,800 -900 Descending San Juan Center
12:10PM 18.3167 -65.0333 90° East 140 161 1,000 -780 Descending San Juan Center
12:11PM 18.3333 -64.9833 71° East 130 150 300 -720 Descending San Juan Center